sensor_id;sensor_type;location;lat;lon;timestamp;pressure;altitude;pressure_sealevel;temperature;humidity
10466;BME280;5280;42.600;23.556;2022-11-20T00:01:26;92774.16;;;14.11;100.00
10466;BME280;5280;42.600;23.556;2022-11-20T00:03:54;92761.69;;;14.04;100.00
10466;BME280;5280;42.600;23.556;2022-11-20T00:06:22;92771.66;;;14.10;100.00
10466;BME280;5280;42.600;23.556;2022-11-20T00:08:50;92779.59;;;14.02;100.00
10466;BME280;5280;42.600;23.556;2022-11-20T00:11:18;92771.94;;;13.99;100.00
10466;BME280;5280;42.600;23.556;2022-11-20T00:13:47;92760.84;;;14.03;100.00
10466;BME280;5280;42.600;23.556;2022-11-20T00:16:18;92762.72;;;14.11;100.00
10466;BME280;5280;42.600;23.556;2022-11-20T00:18:45;92777.09;;;14.00;100.00
10466;BME280;5280;42.600;23.556;2022-11-20T00:21:13;92774.53;;;13.91;99.73
10466;BME280;5280;42.600;23.556;2022-11-20T00:23:41;92757.22;;;14.04;100.00
10466;BME280;5280;42.600;23.556;2022-11-20T00:26:11;92765.84;;;14.06;100.00
10466;BME280;5280;42.600;23.556;2022-11-20T00:28:39;92754.84;;;14.01;100.00
10466;BME280;5280;42.600;23.556;2022-11-20T00:31:08;92754.38;;;14.06;100.00
10466;BME280;5280;42.600;23.556;2022-11-20T00:33:37;92706.16;;;13.93;97.28
10466;BME280;5280;42.600;23.556;2022-11-20T00:36:05;92727.56;;;14.25;93.20
10466;BME280;5280;42.600;23.556;2022-11-20T00:38:33;92735.50;;;14.43;93.36
10466;BME280;5280;42.600;23.556;2022-11-20T00:41:02;92753.00;;;14.53;99.57
10466;BME280;5280;42.600;23.556;2022-11-20T00:43:29;92728.72;;;14.48;99.76
10466;BME280;5280;42.600;23.556;2022-11-20T00:45:56;92729.97;;;14.36;97.82
10466;BME280;5280;42.600;23.556;2022-11-20T00:48:23;92724.66;;;14.10;92.52
10466;BME280;5280;42.600;23.556;2022-11-20T00:50:52;92720.03;;;14.12;95.60
10466;BME280;5280;42.600;23.556;2022-11-20T00:53:19;92734.25;;;14.29;97.61
10466;BME280;5280;42.600;23.556;2022-11-20T00:55:52;92737.06;;;14.28;98.90
10466;BME280;5280;42.600;23.556;2022-11-20T00:58:20;92729.06;;;14.19;98.02
10466;BME280;5280;42.600;23.556;2022-11-20T01:00:47;92732.81;;;14.09;97.09
10466;BME280;5280;42.600;23.556;2022-11-20T01:03:14;92737.41;;;14.33;97.01
10466;BME280;5280;42.600;23.556;2022-11-20T01:05:41;92741.94;;;14.40;96.90
10466;BME280;5280;42.600;23.556;2022-11-20T01:08:09;92766.22;;;14.45;99.02
10466;BME280;5280;42.600;23.556;2022-11-20T01:10:36;92757.06;;;14.40;96.92
10466;BME280;5280;42.600;23.556;2022-11-20T01:13:03;92766.91;;;14.39;95.63
10466;BME280;5280;42.600;23.556;2022-11-20T01:15:47;92765.13;;;14.30;97.17
10466;BME280;5280;42.600;23.556;2022-11-20T01:18:14;92757.16;;;14.30;97.09
10466;BME280;5280;42.600;23.556;2022-11-20T01:20:41;92746.84;;;14.27;99.03
10466;BME280;5280;42.600;23.556;2022-11-20T01:23:08;92746.25;;;14.07;100.00
10466;BME280;5280;42.600;23.556;2022-11-20T01:25:36;92740.72;;;14.01;100.00
10466;BME280;5280;42.600;23.556;2022-11-20T01:28:02;92726.72;;;13.91;100.00
10466;BME280;5280;42.600;23.556;2022-11-20T01:30:29;92720.63;;;13.98;99.32
10466;BME280;5280;42.600;23.556;2022-11-20T01:32:56;92714.25;;;14.17;100.00
10466;BME280;5280;42.600;23.556;2022-11-20T01:35:23;92709.63;;;14.19;100.00
10466;BME280;5280;42.600;23.556;2022-11-20T01:37:50;92687.16;;;14.13;100.00
10466;BME280;5280;42.600;23.556;2022-11-20T01:40:17;92680.94;;;13.97;100.00
10466;BME280;5280;42.600;23.556;2022-11-20T01:42:47;92704.06;;;14.04;100.00
10466;BME280;5280;42.600;23.556;2022-11-20T01:45:57;92689.28;;;14.10;100.00
10466;BME280;5280;42.600;23.556;2022-11-20T01:48:28;92684.94;;;14.01;99.24
10466;BME280;5280;42.600;23.556;2022-11-20T01:50:57;92682.91;;;13.95;99.79
10466;BME280;5280;42.600;23.556;2022-11-20T01:53:28;92681.78;;;13.97;100.00
10466;BME280;5280;42.600;23.556;2022-11-20T01:55:57;92658.88;;;13.70;99.98
10466;BME280;5280;42.600;23.556;2022-11-20T01:58:30;92697.88;;;13.96;99.85
10466;BME280;5280;42.600;23.556;2022-11-20T02:01:00;92686.69;;;13.84;100.00
10466;BME280;5280;42.600;23.556;2022-11-20T02:03:27;92687.84;;;13.82;99.67
10466;BME280;5280;42.600;23.556;2022-11-20T02:05:59;92687.84;;;13.82;100.00
10466;BME280;5280;42.600;23.556;2022-11-20T02:08:28;92678.50;;;13.69;97.15
10466;BME280;5280;42.600;23.556;2022-11-20T02:10:55;92688.44;;;13.75;97.77
10466;BME280;5280;42.600;23.556;2022-11-20T02:13:22;92688.81;;;13.80;98.86
10466;BME280;5280;42.600;23.556;2022-11-20T02:16:11;92689.63;;;13.73;99.68
10466;BME280;5280;42.600;23.556;2022-11-20T02:18:40;92697.94;;;13.78;99.84
10466;BME280;5280;42.600;23.556;2022-11-20T02:21:12;92699.28;;;13.82;98.68
10466;BME280;5280;42.600;23.556;2022-11-20T02:23:52;92703.09;;;13.79;100.00
10466;BME280;5280;42.600;23.556;2022-11-20T02:26:22;92715.06;;;13.84;98.81
10466;BME280;5280;42.600;23.556;2022-11-20T02:28:50;92712.94;;;13.87;97.94
10466;BME280;5280;42.600;23.556;2022-11-20T02:31:17;92704.59;;;13.82;99.47
10466;BME280;5280;42.600;23.556;2022-11-20T02:33:44;92707.63;;;13.87;99.42
10466;BME280;5280;42.600;23.556;2022-11-20T02:36:15;92691.34;;;13.90;97.71
10466;BME280;5280;42.600;23.556;2022-11-20T02:38:43;92701.19;;;13.90;97.69
10466;BME280;5280;42.600;23.556;2022-11-20T02:41:11;92713.16;;;13.94;96.58
10466;BME280;5280;42.600;23.556;2022-11-20T02:43:38;92703.47;;;13.85;96.48
10466;BME280;5280;42.600;23.556;2022-11-20T02:46:07;92703.47;;;13.85;98.31
10466;BME280;5280;42.600;23.556;2022-11-20T02:48:34;92704.28;;;13.85;99.51
10466;BME280;5280;42.600;23.556;2022-11-20T02:51:00;92699.75;;;13.77;96.95
10466;BME280;5280;42.600;23.556;2022-11-20T02:53:27;92706.97;;;13.59;100.00
10466;BME280;5280;42.600;23.556;2022-11-20T02:55:55;92715.66;;;13.69;100.00
10466;BME280;5280;42.600;23.556;2022-11-20T02:58:23;92696.13;;;13.53;100.00
10466;BME280;5280;42.600;23.556;2022-11-20T03:00:50;92728.94;;;13.69;100.00
10466;BME280;5280;42.600;23.556;2022-11-20T03:03:16;92744.28;;;13.84;100.00
10466;BME280;5280;42.600;23.556;2022-11-20T03:05:43;92744.94;;;13.86;97.75
10466;BME280;5280;42.600;23.556;2022-11-20T03:08:10;92744.66;;;13.89;97.82
10466;BME280;5280;42.600;23.556;2022-11-20T03:10:37;92737.56;;;13.97;92.13
10466;BME280;5280;42.600;23.556;2022-11-20T03:13:04;92776.31;;;14.08;94.38
10466;BME280;5280;42.600;23.556;2022-11-20T03:15:32;92767.88;;;14.12;97.37
10466;BME280;5280;42.600;23.556;2022-11-20T03:17:59;92765.00;;;14.06;98.55
10466;BME280;5280;42.600;23.556;2022-11-20T03:20:25;92777.25;;;14.25;98.93
10466;BME280;5280;42.600;23.556;2022-11-20T03:22:53;92769.16;;;14.34;96.31
10466;BME280;5280;42.600;23.556;2022-11-20T03:25:20;92781.63;;;14.34;94.86
10466;BME280;5280;42.600;23.556;2022-11-20T03:27:47;92773.09;;;14.30;93.46
10466;BME280;5280;42.600;23.556;2022-11-20T03:30:14;92768.75;;;14.47;89.54
10466;BME280;5280;42.600;23.556;2022-11-20T03:32:42;92774.97;;;14.63;85.07
10466;BME280;5280;42.600;23.556;2022-11-20T03:35:09;92780.47;;;14.70;88.73
10466;BME280;5280;42.600;23.556;2022-11-20T03:37:36;92783.66;;;14.82;90.55
10466;BME280;5280;42.600;23.556;2022-11-20T03:40:03;92794.03;;;14.93;90.65
10466;BME280;5280;42.600;23.556;2022-11-20T03:42:30;92781.34;;;14.87;91.09
10466;BME280;5280;42.600;23.556;2022-11-20T03:45:12;92791.84;;;14.88;90.42
10466;BME280;5280;42.600;23.556;2022-11-20T03:47:39;92786.34;;;14.90;90.46
10466;BME280;5280;42.600;23.556;2022-11-20T03:50:09;92785.16;;;14.76;92.75
10466;BME280;5280;42.600;23.556;2022-11-20T03:52:37;92784.50;;;14.82;89.40
10466;BME280;5280;42.600;23.556;2022-11-20T03:55:05;92776.22;;;14.93;91.97
10466;BME280;5280;42.600;23.556;2022-11-20T03:57:32;92779.88;;;15.00;88.27
10466;BME280;5280;42.600;23.556;2022-11-20T03:59:59;92759.94;;;14.96;89.12
10466;BME280;5280;42.600;23.556;2022-11-20T04:02:26;92771.59;;;15.12;90.02
10466;BME280;5280;42.600;23.556;2022-11-20T04:04:53;92767.13;;;15.12;90.88
10466;BME280;5280;42.600;23.556;2022-11-20T04:07:21;92747.47;;;14.97;89.57
10466;BME280;5280;42.600;23.556;2022-11-20T04:09:48;92774.91;;;15.05;85.12
10466;BME280;5280;42.600;23.556;2022-11-20T04:12:14;92773.63;;;15.18;85.04
10466;BME280;5280;42.600;23.556;2022-11-20T04:14:41;92781.59;;;15.26;82.16
10466;BME280;5280;42.600;23.556;2022-11-20T04:17:08;92782.44;;;15.34;79.94
10466;BME280;5280;42.600;23.556;2022-11-20T04:19:35;92765.47;;;15.35;83.64
10466;BME280;5280;42.600;23.556;2022-11-20T04:22:01;92779.81;;;15.42;78.93
10466;BME280;5280;42.600;23.556;2022-11-20T04:24:30;92787.78;;;15.50;81.78
10466;BME280;5280;42.600;23.556;2022-11-20T04:26:56;92790.16;;;15.70;75.85
10466;BME280;5280;42.600;23.556;2022-11-20T04:29:23;92784.66;;;15.79;77.27
10466;BME280;5280;42.600;23.556;2022-11-20T04:31:50;92789.34;;;15.93;76.14
10466;BME280;5280;42.600;23.556;2022-11-20T04:34:16;92795.31;;;15.96;73.33
10466;BME280;5280;42.600;23.556;2022-11-20T04:36:43;92784.81;;;15.94;73.53
10466;BME280;5280;42.600;23.556;2022-11-20T04:39:14;92787.00;;;16.07;77.57
10466;BME280;5280;42.600;23.556;2022-11-20T04:41:46;92783.66;;;16.13;77.51
10466;BME280;5280;42.600;23.556;2022-11-20T04:44:13;92788.81;;;16.14;78.00
10466;BME280;5280;42.600;23.556;2022-11-20T04:46:41;92800.16;;;16.08;73.24
10466;BME280;5280;42.600;23.556;2022-11-20T04:49:08;92784.16;;;16.00;71.09
10466;BME280;5280;42.600;23.556;2022-11-20T04:51:35;92787.81;;;16.15;76.20
10466;BME280;5280;42.600;23.556;2022-11-20T04:54:02;92790.31;;;16.17;78.80
10466;BME280;5280;42.600;23.556;2022-11-20T04:56:29;92790.97;;;16.19;78.30
10466;BME280;5280;42.600;23.556;2022-11-20T04:58:59;92782.69;;;15.98;78.88
10466;BME280;5280;42.600;23.556;2022-11-20T05:01:26;92718.56;;;15.75;82.28
10466;BME280;5280;42.600;23.556;2022-11-20T05:03:55;92781.00;;;16.13;75.26
10466;BME280;5280;42.600;23.556;2022-11-20T05:06:22;92785.66;;;16.19;81.62
10466;BME280;5280;42.600;23.556;2022-11-20T05:08:49;92790.16;;;16.18;81.93
10466;BME280;5280;42.600;23.556;2022-11-20T05:11:18;92726.94;;;15.64;83.81
10466;BME280;5280;42.600;23.556;2022-11-20T05:13:45;92782.16;;;15.94;79.76
10466;BME280;5280;42.600;23.556;2022-11-20T05:16:15;92795.81;;;15.99;78.42
10466;BME280;5280;42.600;23.556;2022-11-20T05:18:42;92790.66;;;15.98;79.65
10466;BME280;5280;42.600;23.556;2022-11-20T05:21:10;92804.84;;;15.98;80.20
10466;BME280;5280;42.600;23.556;2022-11-20T05:23:38;92803.50;;;16.02;81.74
10466;BME280;5280;42.600;23.556;2022-11-20T05:26:06;92801.97;;;16.00;85.71
10466;BME280;5280;42.600;23.556;2022-11-20T05:28:34;92794.19;;;15.98;90.30
10466;BME280;5280;42.600;23.556;2022-11-20T05:31:05;92764.38;;;15.78;97.05
10466;BME280;5280;42.600;23.556;2022-11-20T05:33:36;92775.53;;;15.66;96.77
10466;BME280;5280;42.600;23.556;2022-11-20T05:36:04;92780.69;;;15.67;95.81
10466;BME280;5280;42.600;23.556;2022-11-20T05:38:31;92775.19;;;15.61;100.00
10466;BME280;5280;42.600;23.556;2022-11-20T05:41:03;92779.13;;;15.32;98.77
10466;BME280;5280;42.600;23.556;2022-11-20T05:43:32;92795.78;;;15.50;100.00
10466;BME280;5280;42.600;23.556;2022-11-20T05:45:59;92797.13;;;15.46;98.18
10466;BME280;5280;42.600;23.556;2022-11-20T05:48:26;92797.47;;;15.43;100.00
10466;BME280;5280;42.600;23.556;2022-11-20T05:50:56;92789.78;;;15.40;100.00
10466;BME280;5280;42.600;23.556;2022-11-20T05:53:23;92797.13;;;15.38;100.00
10466;BME280;5280;42.600;23.556;2022-11-20T05:55:56;92807.44;;;15.33;100.00
10466;BME280;5280;42.600;23.556;2022-11-20T05:58:23;92810.09;;;15.33;100.00
10466;BME280;5280;42.600;23.556;2022-11-20T06:00:50;92808.22;;;15.26;100.00
10466;BME280;5280;42.600;23.556;2022-11-20T06:03:17;92786.28;;;15.24;100.00
10466;BME280;5280;42.600;23.556;2022-11-20T06:05:44;92805.25;;;15.29;100.00
10466;BME280;5280;42.600;23.556;2022-11-20T06:08:15;92801.56;;;15.30;100.00
10466;BME280;5280;42.600;23.556;2022-11-20T06:10:41;92806.25;;;15.36;100.00
10466;BME280;5280;42.600;23.556;2022-11-20T06:13:08;92798.41;;;15.18;100.00
10466;BME280;5280;42.600;23.556;2022-11-20T06:15:35;92765.06;;;14.90;100.00
10466;BME280;5280;42.600;23.556;2022-11-20T06:18:02;92789.09;;;15.22;100.00
10466;BME280;5280;42.600;23.556;2022-11-20T06:20:29;92761.50;;;15.23;100.00
10466;BME280;5280;42.600;23.556;2022-11-20T06:22:55;92755.44;;;15.05;100.00
10466;BME280;5280;42.600;23.556;2022-11-20T06:25:24;92763.13;;;15.24;100.00
10466;BME280;5280;42.600;23.556;2022-11-20T06:27:50;92751.78;;;14.98;100.00
10466;BME280;5280;42.600;23.556;2022-11-20T06:30:18;92783.44;;;15.17;100.00
10466;BME280;5280;42.600;23.556;2022-11-20T06:32:45;92785.75;;;15.20;100.00
10466;BME280;5280;42.600;23.556;2022-11-20T06:35:12;92791.75;;;15.22;100.00
10466;BME280;5280;42.600;23.556;2022-11-20T06:37:38;92797.72;;;15.16;94.46
10466;BME280;5280;42.600;23.556;2022-11-20T06:40:06;92791.94;;;15.29;93.12
10466;BME280;5280;42.600;23.556;2022-11-20T06:42:34;92805.25;;;15.37;90.58
10466;BME280;5280;42.600;23.556;2022-11-20T06:45:01;92810.44;;;15.38;96.55
10466;BME280;5280;42.600;23.556;2022-11-20T06:47:29;92764.13;;;15.15;96.93
10466;BME280;5280;42.600;23.556;2022-11-20T06:49:56;92806.28;;;15.44;95.20
10466;BME280;5280;42.600;23.556;2022-11-20T06:52:23;92795.78;;;15.42;98.23
10466;BME280;5280;42.600;23.556;2022-11-20T06:54:49;92789.47;;;15.43;97.26
10466;BME280;5280;42.600;23.556;2022-11-20T06:57:16;92792.34;;;15.58;98.23
10466;BME280;5280;42.600;23.556;2022-11-20T06:59:44;92780.97;;;15.48;96.59
10466;BME280;5280;42.600;23.556;2022-11-20T07:02:12;92782.47;;;15.50;100.00
10466;BME280;5280;42.600;23.556;2022-11-20T07:04:39;92797.00;;;15.56;98.76
10466;BME280;5280;42.600;23.556;2022-11-20T07:07:05;92794.19;;;15.58;97.39
10466;BME280;5280;42.600;23.556;2022-11-20T07:09:32;92804.50;;;15.69;100.00
10466;BME280;5280;42.600;23.556;2022-11-20T07:11:59;92784.16;;;15.60;97.73
10466;BME280;5280;42.600;23.556;2022-11-20T07:14:26;92792.84;;;15.62;86.86
10466;BME280;5280;42.600;23.556;2022-11-20T07:16:54;92797.50;;;15.76;94.99
10466;BME280;5280;42.600;23.556;2022-11-20T07:19:21;92729.56;;;15.47;98.76
10466;BME280;5280;42.600;23.556;2022-11-20T07:21:48;92776.50;;;15.81;98.78
10466;BME280;5280;42.600;23.556;2022-11-20T07:24:15;92745.56;;;15.56;97.42
10466;BME280;5280;42.600;23.556;2022-11-20T07:26:41;92800.66;;;15.87;95.03
10466;BME280;5280;42.600;23.556;2022-11-20T07:29:08;92795.16;;;15.89;84.10
10466;BME280;5280;42.600;23.556;2022-11-20T07:31:35;92798.16;;;16.02;89.64
10466;BME280;5280;42.600;23.556;2022-11-20T07:34:03;92757.56;;;15.84;87.08
10466;BME280;5280;42.600;23.556;2022-11-20T07:36:30;92771.00;;;16.07;86.71
10466;BME280;5280;42.600;23.556;2022-11-20T07:38:57;92783.78;;;16.27;80.50
10466;BME280;5280;42.600;23.556;2022-11-20T07:41:23;92789.09;;;16.44;86.73
10466;BME280;5280;42.600;23.556;2022-11-20T07:43:50;92793.72;;;16.50;78.87
10466;BME280;5280;42.600;23.556;2022-11-20T07:46:20;92774.53;;;16.54;78.86
10466;BME280;5280;42.600;23.556;2022-11-20T07:48:47;92770.22;;;16.61;77.53
10466;BME280;5280;42.600;23.556;2022-11-20T07:51:15;92765.03;;;16.68;79.40
10466;BME280;5280;42.600;23.556;2022-11-20T07:53:42;92803.44;;;16.98;80.04
10466;BME280;5280;42.600;23.556;2022-11-20T07:56:08;92803.88;;;17.09;78.51
10466;BME280;5280;42.600;23.556;2022-11-20T07:58:36;92756.59;;;16.87;80.90
10466;BME280;5280;42.600;23.556;2022-11-20T08:01:03;92806.81;;;17.23;77.71
10466;BME280;5280;42.600;23.556;2022-11-20T08:03:30;92801.78;;;17.28;78.81
10466;BME280;5280;42.600;23.556;2022-11-20T08:05:58;92822.13;;;17.29;75.65
10466;BME280;5280;42.600;23.556;2022-11-20T08:08:27;92821.78;;;17.32;75.60
10466;BME280;5280;42.600;23.556;2022-11-20T08:10:54;92824.28;;;17.33;82.62
10466;BME280;5280;42.600;23.556;2022-11-20T08:13:41;92816.16;;;17.27;80.50
10466;BME280;5280;42.600;23.556;2022-11-20T08:16:25;92817.16;;;17.26;78.67
10466;BME280;5280;42.600;23.556;2022-11-20T08:18:52;92777.13;;;16.87;79.51
10466;BME280;5280;42.600;23.556;2022-11-20T08:21:19;92780.88;;;17.00;77.42
10466;BME280;5280;42.600;23.556;2022-11-20T08:23:47;92819.13;;;17.23;77.51
10466;BME280;5280;42.600;23.556;2022-11-20T08:26:14;92793.50;;;17.14;78.48
10466;BME280;5280;42.600;23.556;2022-11-20T08:28:40;92805.69;;;17.17;79.63
10466;BME280;5280;42.600;23.556;2022-11-20T08:31:07;92795.16;;;17.15;79.97
10466;BME280;5280;42.600;23.556;2022-11-20T08:33:35;92776.06;;;16.96;76.82
10466;BME280;5280;42.600;23.556;2022-11-20T08:36:02;92776.22;;;17.02;78.88
10466;BME280;5280;42.600;23.556;2022-11-20T08:38:30;92788.56;;;17.03;80.19
10466;BME280;5280;42.600;23.556;2022-11-20T08:40:59;92776.31;;;17.09;79.95
10466;BME280;5280;42.600;23.556;2022-11-20T08:43:43;92780.81;;;17.16;80.33
10466;BME280;5280;42.600;23.556;2022-11-20T08:46:10;92783.66;;;17.15;77.13
10466;BME280;5280;42.600;23.556;2022-11-20T08:48:37;92785.47;;;17.23;75.08
10466;BME280;5280;42.600;23.556;2022-11-20T08:51:04;92781.25;;;17.28;78.23
10466;BME280;5280;42.600;23.556;2022-11-20T08:53:31;92775.50;;;17.39;75.70
10466;BME280;5280;42.600;23.556;2022-11-20T08:55:59;92775.63;;;17.46;78.93
10466;BME280;5280;42.600;23.556;2022-11-20T08:58:26;92776.75;;;17.51;78.02
10466;BME280;5280;42.600;23.556;2022-11-20T09:00:53;92783.22;;;17.57;82.92
10466;BME280;5280;42.600;23.556;2022-11-20T09:03:20;92801.94;;;17.57;80.71
10466;BME280;5280;42.600;23.556;2022-11-20T09:05:47;92789.66;;;17.48;85.25
10466;BME280;5280;42.600;23.556;2022-11-20T09:08:14;92795.22;;;17.38;84.35
10466;BME280;5280;42.600;23.556;2022-11-20T09:10:41;92818.22;;;17.39;84.75
10466;BME280;5280;42.600;23.556;2022-11-20T09:13:09;92796.34;;;17.13;86.87
10466;BME280;5280;42.600;23.556;2022-11-20T09:15:36;92801.66;;;17.21;91.12
10466;BME280;5280;42.600;23.556;2022-11-20T09:18:03;92819.03;;;17.17;92.64
10466;BME280;5280;42.600;23.556;2022-11-20T09:20:30;92805.59;;;17.02;94.80
10466;BME280;5280;42.600;23.556;2022-11-20T09:22:57;92815.44;;;16.94;91.35
10466;BME280;5280;42.600;23.556;2022-11-20T09:25:24;92812.44;;;16.97;92.56
10466;BME280;5280;42.600;23.556;2022-11-20T09:27:55;92820.97;;;16.92;91.70
10466;BME280;5280;42.600;23.556;2022-11-20T09:30:23;92835.69;;;16.88;93.45
10466;BME280;5280;42.600;23.556;2022-11-20T09:32:50;92815.66;;;16.84;89.80
10466;BME280;5280;42.600;23.556;2022-11-20T09:35:17;92830.03;;;16.75;94.73
10466;BME280;5280;42.600;23.556;2022-11-20T09:37:46;92827.72;;;16.72;94.41
10466;BME280;5280;42.600;23.556;2022-11-20T09:40:19;92821.25;;;16.58;94.26
10466;BME280;5280;42.600;23.556;2022-11-20T09:42:51;92822.38;;;16.64;90.25
10466;BME280;5280;42.600;23.556;2022-11-20T09:45:35;92817.41;;;16.61;89.11
10466;BME280;5280;42.600;23.556;2022-11-20T09:48:18;92818.72;;;16.65;89.57
10466;BME280;5280;42.600;23.556;2022-11-20T09:50:52;92818.41;;;16.68;89.43
10466;BME280;5280;42.600;23.556;2022-11-20T09:53:28;92819.41;;;16.59;86.95
10466;BME280;5280;42.600;23.556;2022-11-20T09:55:57;92813.91;;;16.52;87.36
10466;BME280;5280;42.600;23.556;2022-11-20T09:58:30;92823.56;;;16.45;86.68
10466;BME280;5280;42.600;23.556;2022-11-20T10:01:09;92823.41;;;16.47;88.27
10466;BME280;5280;42.600;23.556;2022-11-20T10:03:44;92837.41;;;16.57;87.05
10466;BME280;5280;42.600;23.556;2022-11-20T10:06:17;92832.38;;;16.54;90.59
10466;BME280;5280;42.600;23.556;2022-11-20T10:08:51;92838.06;;;16.51;93.05
10466;BME280;5280;42.600;23.556;2022-11-20T10:11:32;92824.09;;;16.49;94.92
10466;BME280;5280;42.600;23.556;2022-11-20T10:14:08;92828.78;;;16.39;95.60
10466;BME280;5280;42.600;23.556;2022-11-20T10:16:46;92825.94;;;16.32;96.19
10466;BME280;5280;42.600;23.556;2022-11-20T10:19:41;92806.47;;;16.15;97.43
10466;BME280;5280;42.600;23.556;2022-11-20T10:22:21;92812.16;;;16.12;99.10
10466;BME280;5280;42.600;23.556;2022-11-20T10:24:56;92820.13;;;16.12;98.68
10466;BME280;5280;42.600;23.556;2022-11-20T10:27:43;92813.16;;;15.87;99.75
10466;BME280;5280;42.600;23.556;2022-11-20T10:30:15;92807.16;;;15.69;100.00
10466;BME280;5280;42.600;23.556;2022-11-20T10:32:47;92801.97;;;15.59;100.00
10466;BME280;5280;42.600;23.556;2022-11-20T10:35:20;92793.19;;;15.59;100.00
10466;BME280;5280;42.600;23.556;2022-11-20T10:37:52;92786.00;;;15.59;100.00
10466;BME280;5280;42.600;23.556;2022-11-20T10:40:29;92778.34;;;15.56;100.00
10466;BME280;5280;42.600;23.556;2022-11-20T10:43:00;92729.19;;;15.26;100.00
10466;BME280;5280;42.600;23.556;2022-11-20T10:45:38;92754.34;;;15.32;100.00
10466;BME280;5280;42.600;23.556;2022-11-20T10:48:15;92785.47;;;15.47;100.00
10466;BME280;5280;42.600;23.556;2022-11-20T10:50:53;92785.31;;;15.49;100.00
10466;BME280;5280;42.600;23.556;2022-11-20T10:53:33;92773.31;;;15.45;100.00
10466;BME280;5280;42.600;23.556;2022-11-20T10:56:05;92768.47;;;15.40;100.00
10466;BME280;5280;42.600;23.556;2022-11-20T10:58:41;92788.78;;;15.41;100.00
10466;BME280;5280;42.600;23.556;2022-11-20T11:01:15;92776.97;;;15.36;100.00
10466;BME280;5280;42.600;23.556;2022-11-20T11:03:43;92774.50;;;15.42;100.00
10466;BME280;5280;42.600;23.556;2022-11-20T11:06:17;92780.16;;;15.47;100.00
10466;BME280;5280;42.600;23.556;2022-11-20T11:08:49;92769.66;;;15.46;100.00
10466;BME280;5280;42.600;23.556;2022-11-20T11:11:21;92762.50;;;15.46;100.00
10466;BME280;5280;42.600;23.556;2022-11-20T11:13:50;92766.38;;;15.52;100.00
10466;BME280;5280;42.600;23.556;2022-11-20T11:16:21;92764.69;;;15.51;100.00
10466;BME280;5280;42.600;23.556;2022-11-20T11:18:49;92759.50;;;15.41;100.00
10466;BME280;5280;42.600;23.556;2022-11-20T11:21:22;92777.84;;;15.53;100.00
10466;BME280;5280;42.600;23.556;2022-11-20T11:23:58;92786.81;;;15.43;100.00
10466;BME280;5280;42.600;23.556;2022-11-20T11:26:28;92780.53;;;15.53;100.00
10466;BME280;5280;42.600;23.556;2022-11-20T11:28:56;92791.16;;;15.61;100.00
10466;BME280;5280;42.600;23.556;2022-11-20T11:31:25;92782.84;;;15.56;100.00
10466;BME280;5280;42.600;23.556;2022-11-20T11:34:03;92758.81;;;15.31;100.00
10466;BME280;5280;42.600;23.556;2022-11-20T11:36:30;92774.50;;;15.42;100.00
10466;BME280;5280;42.600;23.556;2022-11-20T11:38:59;92795.94;;;15.41;100.00
10466;BME280;5280;42.600;23.556;2022-11-20T11:41:30;92798.25;;;15.28;100.00
10466;BME280;5280;42.600;23.556;2022-11-20T11:44:02;92844.38;;;15.44;100.00
10466;BME280;5280;42.600;23.556;2022-11-20T11:46:57;92835.53;;;15.36;100.00
10466;BME280;5280;42.600;23.556;2022-11-20T11:49:26;92854.66;;;15.23;100.00
10466;BME280;5280;42.600;23.556;2022-11-20T11:52:01;92863.22;;;15.01;100.00
10466;BME280;5280;42.600;23.556;2022-11-20T11:54:36;92895.06;;;14.85;100.00
10466;BME280;5280;42.600;23.556;2022-11-20T11:57:12;92883.44;;;14.86;100.00
10466;BME280;5280;42.600;23.556;2022-11-20T11:59:54;92856.19;;;14.84;100.00
10466;BME280;5280;42.600;23.556;2022-11-20T12:02:31;92844.53;;;14.85;100.00
10466;BME280;5280;42.600;23.556;2022-11-20T12:05:10;92829.59;;;14.92;100.00
10466;BME280;5280;42.600;23.556;2022-11-20T12:07:43;92834.91;;;14.84;100.00
10466;BME280;5280;42.600;23.556;2022-11-20T12:10:16;92819.41;;;14.79;100.00
10466;BME280;5280;42.600;23.556;2022-11-20T12:12:49;92824.53;;;14.73;100.00
10466;BME280;5280;42.600;23.556;2022-11-20T12:15:29;92816.81;;;14.53;100.00
10466;BME280;5280;42.600;23.556;2022-11-20T12:17:56;92827.28;;;14.29;100.00
10466;BME280;5280;42.600;23.556;2022-11-20T12:20:29;92810.16;;;14.06;100.00
10466;BME280;5280;42.600;23.556;2022-11-20T12:23:04;92827.38;;;13.94;100.00
10466;BME280;5280;42.600;23.556;2022-11-20T12:25:36;92777.16;;;13.39;100.00
10466;BME280;5280;42.600;23.556;2022-11-20T12:28:27;92804.38;;;13.59;100.00
10466;BME280;5280;42.600;23.556;2022-11-20T12:31:09;92798.75;;;13.44;100.00
10466;BME280;5280;42.600;23.556;2022-11-20T12:33:51;92791.69;;;13.35;100.00
10466;BME280;5280;42.600;23.556;2022-11-20T12:36:32;92828.25;;;13.23;100.00
10466;BME280;5280;42.600;23.556;2022-11-20T12:42:15;92847.78;;;13.05;100.00
10466;BME280;5280;42.600;23.556;2022-11-20T12:45:13;92835.75;;;13.01;100.00
10466;BME280;5280;42.600;23.556;2022-11-20T12:50:40;92811.81;;;13.20;100.00
10466;BME280;5280;42.600;23.556;2022-11-20T12:53:24;92795.50;;;13.15;100.00
10466;BME280;5280;42.600;23.556;2022-11-20T12:55:57;92794.03;;;13.20;100.00
10466;BME280;5280;42.600;23.556;2022-11-20T12:58:31;92793.97;;;13.30;100.00
10466;BME280;5280;42.600;23.556;2022-11-20T13:01:12;92776.50;;;13.45;100.00
10466;BME280;5280;42.600;23.556;2022-11-20T13:04:08;92752.63;;;13.45;100.00
10466;BME280;5280;42.600;23.556;2022-11-20T13:06:39;92753.69;;;13.52;100.00
10466;BME280;5280;42.600;23.556;2022-11-20T13:09:08;92718.91;;;13.38;100.00
10466;BME280;5280;42.600;23.556;2022-11-20T13:11:44;92747.91;;;13.57;100.00
10466;BME280;5280;42.600;23.556;2022-11-20T13:14:24;92752.75;;;13.61;100.00
10466;BME280;5280;42.600;23.556;2022-11-20T13:16:58;92751.78;;;13.62;100.00
10466;BME280;5280;42.600;23.556;2022-11-20T13:19:27;92736.47;;;13.56;100.00